Time;durP1;ratioP1;P1;durP2;ratioP2;P2;SDS_P1;SDS_P2;PMS_P1;PMS_P2;Temp;Humidity;BMP_temperature;BMP_pressure;BME280_temperature;BME280_humidity;BME280_pressure;Samples;Min_cycle;Max_cycle;Signal;HPM_P1;HPM_P2
2023/02/12 00:01:44;;;;;;;21.65;8.45;;;;;;;;;;5082315;28;20044;-76
2023/02/12 00:04:10;;;;;;;23.40;9.45;;;;;;;;;;5086608;28;20020;-76
2023/02/12 00:06:36;;;;;;;26.30;10.00;;;;;;;;;;5091700;28;20035;-76
2023/02/12 00:09:01;;;;;;;25.60;9.65;;;;;;;;;;5091698;28;20028;-76
2023/02/12 00:11:28;;;;;;;24.65;10.10;;;;;;;;;;5091471;28;20382;-76
2023/02/12 00:13:53;;;;;;;28.77;10.63;;;;;;;;;;5080518;28;20101;-77
2023/02/12 00:16:20;;;;;;;29.10;10.63;;;;;;;;;;5076026;28;20082;-76
2023/02/12 00:18:45;;;;;;;25.55;10.23;;;;;;;;;;5091372;28;20032;-76
2023/02/12 00:21:12;;;;;;;24.00;10.37;;;;;;;;;;5092337;28;20031;-76
2023/02/12 00:23:39;;;;;;;25.80;9.85;;;;;;;;;;5091326;28;20016;-76
2023/02/12 00:26:06;;;;;;;25.25;9.10;;;;;;;;;;5076904;28;20413;-76
2023/02/12 00:28:31;;;;;;;15.90;6.93;;;;;;;;;;5091697;28;20036;-76
2023/02/12 00:30:56;;;;;;;14.10;6.72;;;;;;;;;;5092185;28;20106;-76
2023/02/12 00:33:22;;;;;;;13.70;6.07;;;;;;;;;;5092259;28;20118;-76
2023/02/12 00:35:56;;;;;;;17.27;6.82;;;;;;;;;;5090864;28;20023;-76
2023/02/12 00:38:21;;;;;;;21.50;6.50;;;;;;;;;;5076206;28;20070;-76
2023/02/12 00:40:47;;;;;;;15.15;6.03;;;;;;;;;;5090642;28;20020;-76
2023/02/12 00:43:12;;;;;;;14.57;6.45;;;;;;;;;;5092094;28;20077;-76
2023/02/12 00:45:37;;;;;;;15.80;6.45;;;;;;;;;;5085293;28;20428;-76
2023/02/12 00:48:03;;;;;;;13.63;6.32;;;;;;;;;;5092401;28;20040;-76
2023/02/12 00:50:28;;;;;;;18.85;7.53;;;;;;;;;;5076514;28;20012;-76
2023/02/12 00:52:54;;;;;;;20.40;6.22;;;;;;;;;;5092247;28;20046;-77
2023/02/12 00:55:19;;;;;;;11.90;5.53;;;;;;;;;;5090550;28;20024;-76
2023/02/12 00:57:45;;;;;;;14.88;6.50;;;;;;;;;;5092066;28;20417;-76
2023/02/12 01:00:10;;;;;;;17.70;7.07;;;;;;;;;;5087702;28;20020;-76
2023/02/12 01:02:35;;;;;;;17.92;6.18;;;;;;;;;;5086571;28;20076;-76
2023/02/12 01:05:01;;;;;;;18.25;6.18;;;;;;;;;;5091308;28;20027;-76
2023/02/12 01:07:26;;;;;;;17.67;6.82;;;;;;;;;;5090658;28;20451;-77
2023/02/12 01:09:51;;;;;;;17.52;6.40;;;;;;;;;;5091560;28;20094;-76
2023/02/12 01:12:16;;;;;;;16.42;6.32;;;;;;;;;;5091757;28;20012;-76
2023/02/12 01:14:41;;;;;;;14.35;5.43;;;;;;;;;;5088917;28;20035;-76
2023/02/12 01:17:08;;;;;;;20.25;6.15;;;;;;;;;;5091966;28;20044;-76
2023/02/12 01:19:33;;;;;;;17.52;5.90;;;;;;;;;;5091549;28;20017;-76
2023/02/12 01:21:58;;;;;;;15.27;6.53;;;;;;;;;;5091753;28;20742;-76
2023/02/12 01:24:23;;;;;;;18.30;6.93;;;;;;;;;;5088219;28;20063;-76
2023/02/12 01:26:48;;;;;;;16.50;6.75;;;;;;;;;;5082699;28;20032;-77
2023/02/12 01:29:13;;;;;;;13.60;6.32;;;;;;;;;;5081532;28;20498;-77
2023/02/12 01:31:39;;;;;;;17.77;7.18;;;;;;;;;;5090190;28;20016;-76
2023/02/12 01:34:05;;;;;;;14.20;6.30;;;;;;;;;;5091789;28;20091;-76
2023/02/12 01:36:30;;;;;;;17.17;6.68;;;;;;;;;;5087803;28;20016;-76
2023/02/12 01:38:56;;;;;;;15.13;6.35;;;;;;;;;;5078642;28;20498;-76
2023/02/12 01:41:26;;;;;;;17.33;6.13;;;;;;;;;;5090097;28;20066;-77
2023/02/12 01:44:08;;;;;;;17.50;6.70;;;;;;;;;;5091166;28;20028;-76
2023/02/12 01:46:33;;;;;;;16.58;6.75;;;;;;;;;;5080559;28;20486;-76
2023/02/12 01:48:59;;;;;;;19.33;6.97;;;;;;;;;;5085668;28;20036;-76
2023/02/12 01:51:24;;;;;;;13.27;5.78;;;;;;;;;;5082932;28;20023;-76
2023/02/12 01:53:51;;;;;;;19.73;7.18;;;;;;;;;;5091370;28;20062;-76
2023/02/12 01:56:17;;;;;;;21.50;7.38;;;;;;;;;;5090146;28;20051;-77
2023/02/12 01:58:42;;;;;;;20.98;7.35;;;;;;;;;;5089768;28;20599;-76
2023/02/12 02:01:12;;;;;;;18.08;7.15;;;;;;;;;;5085397;28;20092;-77
2023/02/12 02:03:38;;;;;;;13.48;6.15;;;;;;;;;;5080588;28;20012;-76
2023/02/12 02:06:15;;;;;;;14.63;5.55;;;;;;;;;;5090890;28;20052;-76
2023/02/12 02:08:40;;;;;;;17.75;7.40;;;;;;;;;;5090250;28;20494;-77
2023/02/12 02:14:31;;;;;;;13.50;6.50;;;;;;;;;;5091052;28;20069;-76
2023/02/12 02:16:35;;;;;;;16.33;6.75;;;;;;;;;;5091029;28;20030;-76
2023/02/12 02:19:01;;;;;;;20.53;7.30;;;;;;;;;;5094926;28;20023;-77
2023/02/12 02:21:32;;;;;;;17.52;7.65;;;;;;;;;;5093522;28;20020;-76
2023/02/12 02:24:10;;;;;;;16.90;6.23;;;;;;;;;;5092356;28;20483;-77
2023/02/12 02:26:54;;;;;;;18.08;6.80;;;;;;;;;;5072796;28;20074;-77
2023/02/12 02:29:19;;;;;;;15.15;5.82;;;;;;;;;;5077376;28;20073;-76
2023/02/12 02:31:48;;;;;;;14.07;6.50;;;;;;;;;;5073186;28;20474;-77
2023/02/12 02:34:26;;;;;;;14.65;6.20;;;;;;;;;;5092760;28;20031;-77
2023/02/12 02:37:07;;;;;;;17.57;5.87;;;;;;;;;;5092126;28;20429;-76
2023/02/12 02:39:37;;;;;;;14.63;6.38;;;;;;;;;;5087602;28;20486;-76
2023/02/12 02:42:05;;;;;;;21.05;7.15;;;;;;;;;;5094379;28;20012;-76
2023/02/12 02:44:51;;;;;;;17.58;6.82;;;;;;;;;;5089280;28;20069;-77
2023/02/12 02:47:17;;;;;;;16.43;6.63;;;;;;;;;;5066900;28;20483;-76
2023/02/12 02:49:46;;;;;;;14.15;5.22;;;;;;;;;;5085341;28;20106;-76
2023/02/12 02:52:15;;;;;;;19.98;6.50;;;;;;;;;;5085212;28;20024;-76
2023/02/12 02:54:48;;;;;;;16.65;5.72;;;;;;;;;;5085689;28;20073;-77
2023/02/12 02:57:16;;;;;;;13.10;5.70;;;;;;;;;;5094025;28;20069;-77
2023/02/12 02:59:44;;;;;;;13.30;6.15;;;;;;;;;;5092902;28;20455;-76
2023/02/12 03:02:20;;;;;;;18.52;6.88;;;;;;;;;;5080551;28;20028;-76
2023/02/12 03:04:49;;;;;;;19.80;6.65;;;;;;;;;;5092447;28;20050;-76
2023/02/12 03:07:28;;;;;;;16.85;6.95;;;;;;;;;;5092764;28;20020;-76
2023/02/12 03:10:00;;;;;;;19.27;6.87;;;;;;;;;;5094142;28;20051;-76
2023/02/12 03:12:39;;;;;;;18.35;6.57;;;;;;;;;;5092332;28;20107;-76
2023/02/12 03:15:10;;;;;;;16.25;6.38;;;;;;;;;;5082946;28;20024;-76
2023/02/12 03:17:42;;;;;;;20.80;6.40;;;;;;;;;;5093969;28;20087;-76
2023/02/12 03:20:12;;;;;;;15.55;6.32;;;;;;;;;;5093488;28;20535;-76
2023/02/12 03:22:39;;;;;;;12.23;5.13;;;;;;;;;;5090851;28;20436;-76
2023/02/12 03:25:12;;;;;;;16.80;5.95;;;;;;;;;;5082677;28;20093;-76
2023/02/12 03:27:42;;;;;;;15.90;6.07;;;;;;;;;;5091905;28;20032;-76
2023/02/12 03:30:08;;;;;;;15.25;6.47;;;;;;;;;;5093796;28;20077;-76
2023/02/12 03:32:45;;;;;;;15.07;6.43;;;;;;;;;;5091913;28;20402;-76
2023/02/12 03:35:17;;;;;;;15.50;6.50;;;;;;;;;;5063260;28;20028;-76
2023/02/12 03:38:01;;;;;;;20.98;6.68;;;;;;;;;;5087587;28;20069;-76
2023/02/12 03:40:26;;;;;;;17.80;7.43;;;;;;;;;;5093102;28;20009;-76
2023/02/12 03:42:54;;;;;;;14.63;6.27;;;;;;;;;;5091561;28;20020;-77
2023/02/12 03:45:23;;;;;;;15.37;6.27;;;;;;;;;;5083203;28;20036;-76
2023/02/12 03:47:52;;;;;;;20.50;7.13;;;;;;;;;;5085532;28;20027;-76
2023/02/12 03:50:36;;;;;;;19.60;6.40;;;;;;;;;;5093089;28;20119;-76
2023/02/12 03:53:01;;;;;;;15.20;6.23;;;;;;;;;;5093029;28;20020;-76
2023/02/12 03:55:28;;;;;;;17.40;6.90;;;;;;;;;;5092838;28;20474;-76
2023/02/12 03:57:59;;;;;;;15.17;5.83;;;;;;;;;;5083156;28;20083;-76
2023/02/12 04:00:24;;;;;;;11.57;5.30;;;;;;;;;;5092254;28;20008;-76
2023/02/12 04:02:50;;;;;;;14.67;5.70;;;;;;;;;;5093190;28;20569;-76
2023/02/12 04:05:17;;;;;;;15.73;6.30;;;;;;;;;;5092778;28;20090;-76
2023/02/12 04:07:42;;;;;;;20.10;7.10;;;;;;;;;;5092681;28;20028;-76
2023/02/12 04:10:08;;;;;;;13.87;6.13;;;;;;;;;;5082405;28;20024;-76
2023/02/12 04:12:38;;;;;;;12.37;5.43;;;;;;;;;;5092855;28;20604;-76
2023/02/12 04:15:03;;;;;;;19.57;6.40;;;;;;;;;;5092350;28;20023;-76
2023/02/12 04:17:35;;;;;;;14.50;6.07;;;;;;;;;;5091547;28;20027;-76
2023/02/12 04:20:18;;;;;;;19.80;6.13;;;;;;;;;;5092672;28;20100;-76
2023/02/12 04:23:13;;;;;;;12.10;5.77;;;;;;;;;;5083877;28;20023;-76
2023/02/12 04:25:38;;;;;;;13.37;5.70;;;;;;;;;;5054695;28;20176;-76
2023/02/12 04:28:06;;;;;;;12.83;4.63;;;;;;;;;;5092499;28;20116;-76
2023/02/12 04:30:38;;;;;;;14.33;5.37;;;;;;;;;;5091983;28;20016;-76
2023/02/12 04:33:05;;;;;;;18.42;5.85;;;;;;;;;;5089514;28;20650;-76
2023/02/12 04:35:30;;;;;;;12.87;5.23;;;;;;;;;;5082145;28;20729;-76
2023/02/12 04:37:57;;;;;;;14.47;6.23;;;;;;;;;;5090956;28;20016;-76
2023/02/12 04:40:23;;;;;;;16.13;5.93;;;;;;;;;;5091537;28;20039;-76
2023/02/12 04:42:49;;;;;;;13.50;5.83;;;;;;;;;;5092211;28;20036;-76
2023/02/12 04:45:23;;;;;;;15.70;6.10;;;;;;;;;;5083903;28;20107;-75
2023/02/12 04:47:48;;;;;;;17.67;6.75;;;;;;;;;;5084381;28;20016;-75
2023/02/12 04:50:14;;;;;;;13.73;6.27;;;;;;;;;;5092151;28;20012;-75
2023/02/12 04:52:39;;;;;;;14.30;5.73;;;;;;;;;;5092216;28;20032;-76
2023/02/12 04:55:04;;;;;;;17.53;7.27;;;;;;;;;;5090560;28;20040;-76
2023/02/12 04:57:29;;;;;;;17.87;6.87;;;;;;;;;;5083438;28;20016;-75
2023/02/12 04:59:55;;;;;;;21.27;6.50;;;;;;;;;;5086828;28;20092;-76
2023/02/12 05:02:20;;;;;;;17.93;6.47;;;;;;;;;;5092261;28;20049;-76
2023/02/12 05:04:45;;;;;;;14.80;6.10;;;;;;;;;;5092012;28;20077;-75
2023/02/12 05:07:10;;;;;;;18.33;6.57;;;;;;;;;;5091878;28;20024;-76
2023/02/12 05:09:35;;;;;;;16.93;6.03;;;;;;;;;;5081550;28;20032;-75
2023/02/12 05:12:01;;;;;;;14.90;6.17;;;;;;;;;;5088540;28;20020;-75
2023/02/12 05:14:26;;;;;;;17.17;6.90;;;;;;;;;;5091412;28;20047;-76
2023/02/12 05:16:51;;;;;;;17.30;6.23;;;;;;;;;;5091779;28;20110;-75
2023/02/12 05:19:16;;;;;;;18.30;6.63;;;;;;;;;;5091723;28;20320;-76
2023/02/12 05:21:41;;;;;;;25.07;7.67;;;;;;;;;;5079070;28;20024;-75
2023/02/12 05:24:07;;;;;;;16.48;6.18;;;;;;;;;;5089916;28;20008;-78
2023/02/12 05:26:32;;;;;;;14.30;5.97;;;;;;;;;;5090441;28;20379;-78
2023/02/12 05:28:57;;;;;;;14.87;5.57;;;;;;;;;;5091498;28;20047;-78
2023/02/12 05:31:22;;;;;;;12.70;5.53;;;;;;;;;;5091700;28;20012;-79
2023/02/12 05:33:48;;;;;;;20.77;6.23;;;;;;;;;;5088264;28;20478;-75
2023/02/12 05:36:15;;;;;;;15.57;5.47;;;;;;;;;;5091357;28;20016;-76
2023/02/12 05:38:41;;;;;;;20.33;6.30;;;;;;;;;;5090148;28;20055;-76
2023/02/12 05:41:07;;;;;;;22.03;6.80;;;;;;;;;;5091355;28;20059;-76
2023/02/12 05:43:32;;;;;;;25.43;8.30;;;;;;;;;;5091692;28;20065;-76
2023/02/12 05:46:02;;;;;;;17.43;6.70;;;;;;;;;;5072683;28;20136;-76
2023/02/12 05:48:27;;;;;;;22.97;8.03;;;;;;;;;;5088773;28;20161;-76
2023/02/12 05:50:53;;;;;;;19.63;6.57;;;;;;;;;;5092490;28;20062;-76
2023/02/12 05:53:18;;;;;;;18.80;6.32;;;;;;;;;;5095598;28;20024;-76
2023/02/12 05:55:43;;;;;;;18.98;6.40;;;;;;;;;;5094104;28;20019;-76
2023/02/12 05:58:08;;;;;;;18.13;5.77;;;;;;;;;;5082092;28;20494;-75
2023/02/12 06:00:34;;;;;;;12.67;5.77;;;;;;;;;;5095483;28;20101;-76
2023/02/12 06:02:59;;;;;;;13.73;5.63;;;;;;;;;;5094288;28;20023;-76
2023/02/12 06:05:24;;;;;;;18.43;6.67;;;;;;;;;;5095159;28;20012;-76
2023/02/12 06:07:50;;;;;;;21.27;7.57;;;;;;;;;;5095344;28;20035;-76
2023/02/12 06:10:15;;;;;;;14.13;4.60;;;;;;;;;;5079525;28;20104;-76
2023/02/12 06:12:40;;;;;;;19.97;7.10;;;;;;;;;;5095080;28;20027;-75
2023/02/12 06:15:05;;;;;;;18.77;7.37;;;;;;;;;;5095072;28;20020;-76
2023/02/12 06:17:32;;;;;;;21.50;6.53;;;;;;;;;;5095122;28;20072;-76
2023/02/12 06:19:58;;;;;;;15.07;5.73;;;;;;;;;;5094869;28;20031;-76
2023/02/12 06:22:23;;;;;;;13.50;6.03;;;;;;;;;;5082386;28;20085;-76
2023/02/12 06:24:48;;;;;;;15.23;6.10;;;;;;;;;;5094584;28;20031;-76
2023/02/12 06:27:13;;;;;;;17.20;5.90;;;;;;;;;;5094856;28;20383;-76
2023/02/12 06:29:39;;;;;;;16.73;5.90;;;;;;;;;;5094742;28;20168;-76
2023/02/12 06:32:07;;;;;;;16.63;6.70;;;;;;;;;;5094715;28;20043;-76
2023/02/12 06:34:32;;;;;;;18.87;7.00;;;;;;;;;;5080961;28;20440;-75
2023/02/12 06:36:58;;;;;;;18.53;6.40;;;;;;;;;;5094530;28;20058;-76
2023/02/12 06:39:23;;;;;;;15.67;6.23;;;;;;;;;;5094621;28;20073;-76
2023/02/12 06:41:48;;;;;;;17.27;6.27;;;;;;;;;;5093325;28;20177;-75
2023/02/12 06:44:14;;;;;;;14.07;6.50;;;;;;;;;;5094250;28;20035;-76
2023/02/12 06:46:39;;;;;;;15.50;5.83;;;;;;;;;;5077356;28;20028;-75
2023/02/12 06:49:04;;;;;;;15.67;6.23;;;;;;;;;;5094433;28;20020;-75
2023/02/12 06:51:30;;;;;;;16.23;6.40;;;;;;;;;;5094619;28;20023;-76
2023/02/12 06:53:55;;;;;;;15.97;6.50;;;;;;;;;;5087197;28;20066;-76
2023/02/12 06:56:21;;;;;;;13.90;5.90;;;;;;;;;;5087897;28;20145;-75
2023/02/12 06:58:50;;;;;;;18.20;5.47;;;;;;;;;;5092726;28;20085;-78
2023/02/12 07:01:17;;;;;;;16.10;6.73;;;;;;;;;;5092639;28;20389;-76
2023/02/12 07:03:43;;;;;;;14.47;5.90;;;;;;;;;;5088327;28;20455;-76
2023/02/12 07:06:08;;;;;;;17.23;6.53;;;;;;;;;;5083158;28;20062;-75
2023/02/12 07:08:33;;;;;;;13.97;5.40;;;;;;;;;;5094191;28;20467;-75
2023/02/12 07:10:59;;;;;;;16.83;6.97;;;;;;;;;;5092861;28;20474;-75
2023/02/12 07:13:24;;;;;;;17.73;7.00;;;;;;;;;;5092408;28;20028;-75
2023/02/12 07:15:49;;;;;;;15.80;6.10;;;;;;;;;;5086693;28;20047;-76
2023/02/12 07:18:14;;;;;;;19.63;7.97;;;;;;;;;;5076420;28;20374;-76
2023/02/12 07:20:39;;;;;;;15.87;6.40;;;;;;;;;;5080973;28;20058;-76
2023/02/12 07:23:04;;;;;;;21.07;6.17;;;;;;;;;;5083468;28;20039;-77
2023/02/12 07:25:30;;;;;;;16.70;5.80;;;;;;;;;;5080850;28;20056;-77
2023/02/12 07:27:55;;;;;;;18.55;6.13;;;;;;;;;;5080663;28;20028;-76
2023/02/12 07:30:20;;;;;;;22.83;7.73;;;;;;;;;;5093879;28;20085;-76
2023/02/12 07:32:45;;;;;;;19.50;7.17;;;;;;;;;;5084094;28;20383;-76
2023/02/12 07:35:10;;;;;;;20.20;7.23;;;;;;;;;;5083085;28;20020;-76
2023/02/12 07:37:36;;;;;;;15.73;7.53;;;;;;;;;;5079337;28;20145;-76
2023/02/12 07:40:01;;;;;;;19.73;7.20;;;;;;;;;;5085193;28;20375;-76
2023/02/12 07:42:26;;;;;;;20.50;7.57;;;;;;;;;;5090788;28;20420;-76
2023/02/12 07:44:51;;;;;;;24.20;7.73;;;;;;;;;;5076755;28;20012;-76
2023/02/12 07:47:16;;;;;;;23.53;8.50;;;;;;;;;;5076030;28;20073;-76
2023/02/12 07:49:42;;;;;;;15.80;6.20;;;;;;;;;;5086212;28;20030;-76
2023/02/12 07:52:07;;;;;;;18.67;6.10;;;;;;;;;;5081675;28;20407;-76
2023/02/12 07:54:33;;;;;;;16.15;6.57;;;;;;;;;;5073444;28;20032;-76
2023/02/12 07:56:59;;;;;;;20.67;6.70;;;;;;;;;;5080810;28;20520;-76
2023/02/12 07:59:25;;;;;;;15.32;6.53;;;;;;;;;;5082670;28;20012;-76
2023/02/12 08:01:51;;;;;;;20.30;6.50;;;;;;;;;;5089927;28;20016;-76
2023/02/12 08:04:17;;;;;;;16.50;6.83;;;;;;;;;;5079755;28;20020;-75
2023/02/12 08:06:47;;;;;;;16.90;7.50;;;;;;;;;;5061646;28;20040;-76
2023/02/12 08:09:13;;;;;;;14.07;6.30;;;;;;;;;;5060223;28;20371;-76
2023/02/12 08:11:40;;;;;;;15.80;6.30;;;;;;;;;;5065710;28;20345;-76
2023/02/12 08:14:05;;;;;;;17.87;6.67;;;;;;;;;;5067887;28;20025;-75
2023/02/12 08:16:34;;;;;;;14.47;5.63;;;;;;;;;;5070500;28;20127;-75
2023/02/12 08:18:59;;;;;;;16.30;6.50;;;;;;;;;;5119036;27;20028;-76
2023/02/12 08:21:25;;;;;;;23.37;6.50;;;;;;;;;;5072848;28;20031;-76
2023/02/12 08:23:52;;;;;;;14.83;6.30;;;;;;;;;;5083109;28;20739;-75
2023/02/12 08:26:19;;;;;;;13.27;6.37;;;;;;;;;;5078944;28;20076;-76
2023/02/12 08:28:45;;;;;;;13.80;5.97;;;;;;;;;;5086093;28;20432;-77
2023/02/12 08:31:12;;;;;;;28.73;8.32;;;;;;;;;;5090660;28;20668;-75
2023/02/12 08:33:37;;;;;;;21.63;7.73;;;;;;;;;;5080981;28;20036;-75
2023/02/12 08:36:08;;;;;;;17.37;6.60;;;;;;;;;;5075792;28;20021;-75
2023/02/12 08:38:34;;;;;;;21.13;7.53;;;;;;;;;;5091971;28;20016;-75
2023/02/12 08:41:01;;;;;;;20.47;7.87;;;;;;;;;;5092107;28;20020;-75
2023/02/12 08:43:26;;;;;;;21.27;7.47;;;;;;;;;;5090523;28;20057;-74
2023/02/12 08:45:51;;;;;;;25.47;9.60;;;;;;;;;;5081760;28;20422;-75
2023/02/12 08:48:16;;;;;;;20.13;6.93;;;;;;;;;;5088871;28;20043;-75
2023/02/12 08:50:41;;;;;;;21.87;7.80;;;;;;;;;;5073449;28;20384;-76
2023/02/12 08:53:07;;;;;;;17.97;7.83;;;;;;;;;;5075159;28;20042;-75
2023/02/12 08:55:32;;;;;;;19.93;7.67;;;;;;;;;;5091958;28;20027;-75
2023/02/12 08:57:57;;;;;;;22.27;8.37;;;;;;;;;;5075919;28;20020;-76
2023/02/12 09:00:22;;;;;;;22.73;7.23;;;;;;;;;;5052404;28;20500;-75
2023/02/12 09:02:47;;;;;;;23.30;6.97;;;;;;;;;;5047321;28;20040;-75
2023/02/12 09:05:13;;;;;;;16.10;6.67;;;;;;;;;;5052250;28;20441;-75
2023/02/12 09:07:38;;;;;;;22.98;7.70;;;;;;;;;;5069508;28;20036;-75
2023/02/12 09:10:03;;;;;;;19.40;7.70;;;;;;;;;;5072932;28;20044;-75
2023/02/12 09:12:28;;;;;;;16.92;7.22;;;;;;;;;;5069977;28;20020;-75
2023/02/12 09:14:54;;;;;;;19.43;7.57;;;;;;;;;;5077003;28;20017;-75
2023/02/12 09:17:19;;;;;;;25.00;8.60;;;;;;;;;;5084269;28;20533;-75
2023/02/12 09:19:44;;;;;;;18.63;8.80;;;;;;;;;;5068866;28;20089;-75
2023/02/12 09:22:09;;;;;;;19.20;7.33;;;;;;;;;;5072644;28;20395;-75
2023/02/12 09:24:37;;;;;;;18.73;7.30;;;;;;;;;;5077866;28;20058;-76
2023/02/12 09:27:02;;;;;;;21.13;7.38;;;;;;;;;;5073129;28;20165;-75
2023/02/12 09:29:27;;;;;;;25.17;8.20;;;;;;;;;;5091867;28;20055;-75
2023/02/12 09:31:52;;;;;;;20.10;7.80;;;;;;;;;;5091674;28;20024;-75
2023/02/12 09:34:18;;;;;;;24.55;8.05;;;;;;;;;;5079438;28;20020;-75
2023/02/12 09:36:43;;;;;;;18.48;7.68;;;;;;;;;;5085012;28;20049;-75
2023/02/12 09:39:08;;;;;;;20.30;7.43;;;;;;;;;;5091506;28;20042;-75
2023/02/12 09:41:40;;;;;;;20.47;7.80;;;;;;;;;;5073765;28;20024;-75
2023/02/12 09:44:14;;;;;;;19.50;7.73;;;;;;;;;;5080649;28;20074;-75
2023/02/12 09:46:51;;;;;;;21.40;8.43;;;;;;;;;;5081964;28;20437;-76
2023/02/12 09:49:35;;;;;;;21.97;8.13;;;;;;;;;;5063741;28;20844;-76
2023/02/12 09:52:01;;;;;;;21.47;8.30;;;;;;;;;;5076324;28;20747;-76
2023/02/12 09:54:38;;;;;;;19.40;7.30;;;;;;;;;;5082937;28;20028;-75
2023/02/12 09:57:05;;;;;;;18.50;6.93;;;;;;;;;;5089929;28;20023;-76
2023/02/12 09:59:37;;;;;;;17.87;7.63;;;;;;;;;;5071984;28;20024;-75
2023/02/12 10:02:05;;;;;;;17.08;7.35;;;;;;;;;;5088612;28;20087;-75
2023/02/12 10:04:30;;;;;;;23.27;7.57;;;;;;;;;;5090120;28;20162;-75
2023/02/12 10:07:11;;;;;;;18.98;7.13;;;;;;;;;;5091236;28;20087;-75
2023/02/12 10:09:37;;;;;;;17.35;7.55;;;;;;;;;;5083339;28;20028;-76
2023/02/12 10:12:06;;;;;;;14.10;5.40;;;;;;;;;;5078420;28;20043;-75
2023/02/12 10:14:50;;;;;;;16.75;6.60;;;;;;;;;;5071785;28;20016;-75
2023/02/12 10:17:15;;;;;;;19.92;7.85;;;;;;;;;;5078203;28;20099;-76
2023/02/12 10:19:51;;;;;;;21.85;8.63;;;;;;;;;;5091003;28;20151;-75
2023/02/12 10:22:36;;;;;;;25.25;8.63;;;;;;;;;;5083046;28;20020;-75
2023/02/12 10:25:19;;;;;;;19.92;7.18;;;;;;;;;;5082681;28;20020;-75
2023/02/12 10:27:49;;;;;;;21.13;6.95;;;;;;;;;;5080422;28;20428;-75
2023/02/12 10:30:36;;;;;;;17.08;6.28;;;;;;;;;;5076041;28;20032;-75
2023/02/12 10:33:08;;;;;;;16.10;6.13;;;;;;;;;;5061998;28;20027;-76
2023/02/12 10:35:34;;;;;;;16.83;6.57;;;;;;;;;;5070800;28;20416;-75
2023/02/12 10:38:03;;;;;;;18.90;5.90;;;;;;;;;;5088653;28;20077;-76
2023/02/12 10:40:32;;;;;;;18.48;7.05;;;;;;;;;;5078074;28;20012;-77
2023/02/12 10:42:58;;;;;;;15.50;5.97;;;;;;;;;;5073888;28;20110;-75
2023/02/12 10:45:27;;;;;;;17.70;6.63;;;;;;;;;;5073724;28;20020;-75
2023/02/12 10:48:00;;;;;;;16.33;6.38;;;;;;;;;;5088436;28;20060;-75
2023/02/12 10:50:46;;;;;;;18.98;6.75;;;;;;;;;;5085709;28;20017;-75
2023/02/12 10:53:16;;;;;;;18.75;7.07;;;;;;;;;;5072388;28;20536;-75
2023/02/12 10:55:42;;;;;;;19.95;7.75;;;;;;;;;;5071813;28;20025;-75
2023/02/12 10:58:16;;;;;;;25.00;7.88;;;;;;;;;;5074324;28;20502;-76
2023/02/12 11:00:41;;;;;;;22.20;7.65;;;;;;;;;;5070485;28;20020;-76
2023/02/12 11:03:09;;;;;;;16.15;6.30;;;;;;;;;;5086213;28;20520;-77
2023/02/12 11:05:36;;;;;;;17.23;5.47;;;;;;;;;;5078332;28;20040;-76
2023/02/12 11:08:02;;;;;;;16.98;7.10;;;;;;;;;;5088951;28;20031;-76
2023/02/12 11:10:31;;;;;;;17.77;7.85;;;;;;;;;;5088618;28;21852;-76
2023/02/12 11:12:58;;;;;;;17.08;5.63;;;;;;;;;;5070123;28;20024;-75
2023/02/12 11:15:24;;;;;;;18.60;7.32;;;;;;;;;;5080903;28;20020;-75
2023/02/12 11:17:59;;;;;;;17.75;6.85;;;;;;;;;;5085274;28;20452;-76
2023/02/12 11:20:28;;;;;;;18.65;6.32;;;;;;;;;;5067370;28;20032;-76
2023/02/12 11:22:53;;;;;;;19.33;6.45;;;;;;;;;;5083889;28;20028;-76
2023/02/12 11:25:19;;;;;;;16.92;6.75;;;;;;;;;;5087706;28;20039;-77
2023/02/12 11:27:57;;;;;;;18.08;6.88;;;;;;;;;;5090132;28;20020;-76
2023/02/12 11:30:22;;;;;;;17.83;6.68;;;;;;;;;;5073493;28;20099;-76
2023/02/12 11:32:51;;;;;;;18.30;6.05;;;;;;;;;;5078600;28;20058;-76
2023/02/12 11:35:23;;;;;;;19.33;6.50;;;;;;;;;;5084085;28;20008;-75
2023/02/12 11:37:50;;;;;;;20.45;7.53;;;;;;;;;;5077057;28;20618;-76
2023/02/12 11:40:25;;;;;;;18.88;7.15;;;;;;;;;;5073249;28;20131;-76
2023/02/12 11:42:53;;;;;;;16.17;6.13;;;;;;;;;;5084787;28;20117;-77
2023/02/12 11:45:19;;;;;;;19.13;7.28;;;;;;;;;;5085006;28;20016;-76
2023/02/12 11:47:45;;;;;;;19.60;7.40;;;;;;;;;;5081677;28;20016;-76
2023/02/12 11:50:13;;;;;;;21.77;7.93;;;;;;;;;;5077747;28;20541;-75
2023/02/12 11:52:39;;;;;;;18.50;6.50;;;;;;;;;;5084042;28;20099;-76
2023/02/12 11:55:24;;;;;;;20.98;7.65;;;;;;;;;;5079109;28;20096;-75
2023/02/12 11:57:50;;;;;;;23.17;7.93;;;;;;;;;;5075609;28;20377;-76
2023/02/12 12:00:18;;;;;;;20.30;7.40;;;;;;;;;;5090934;28;20439;-76
2023/02/12 12:02:56;;;;;;;20.80;8.38;;;;;;;;;;5087303;28;20400;-78
2023/02/12 12:05:23;;;;;;;21.92;7.63;;;;;;;;;;5078293;28;20058;-76
2023/02/12 12:08:00;;;;;;;20.15;8.05;;;;;;;;;;5084787;28;20111;-75
2023/02/12 12:10:26;;;;;;;20.30;8.00;;;;;;;;;;5075053;28;20016;-76
2023/02/12 12:12:56;;;;;;;26.35;8.35;;;;;;;;;;5069618;28;20078;-76
2023/02/12 12:21:12;;;;;;;18.60;7.88;;;;;;;;;;5072669;28;20039;-76
2023/02/12 12:23:41;;;;;;;22.85;7.50;;;;;;;;;;5088216;28;20043;-76
2023/02/12 12:26:09;;;;;;;25.23;8.20;;;;;;;;;;5092308;28;20020;-76
2023/02/12 12:28:50;;;;;;;17.25;6.47;;;;;;;;;;5076073;28;20089;-76
2023/02/12 12:31:31;;;;;;;24.45;9.15;;;;;;;;;;5071599;28;20386;-76
2023/02/12 12:33:56;;;;;;;30.23;8.98;;;;;;;;;;5089248;28;20012;-76
2023/02/12 12:36:41;;;;;;;25.73;7.82;;;;;;;;;;5071913;28;20035;-76
2023/02/12 12:39:22;;;;;;;22.23;7.13;;;;;;;;;;5006154;28;21882;-76
2023/02/12 12:42:05;;;;;;;21.70;7.53;;;;;;;;;;5077254;28;20023;-76
2023/02/12 12:44:33;;;;;;;21.92;7.35;;;;;;;;;;5089088;28;20028;-76
2023/02/12 12:46:59;;;;;;;20.30;7.95;;;;;;;;;;5092202;28;20427;-76
2023/02/12 12:49:27;;;;;;;19.75;7.63;;;;;;;;;;5090671;28;20119;-76
2023/02/12 12:52:01;;;;;;;18.33;7.75;;;;;;;;;;5091886;28;20015;-76
2023/02/12 12:54:45;;;;;;;21.25;8.00;;;;;;;;;;5087081;28;20016;-76
2023/02/12 12:57:19;;;;;;;18.50;7.40;;;;;;;;;;5072356;28;20035;-76
2023/02/12 12:59:44;;;;;;;17.30;7.70;;;;;;;;;;5085489;28;20012;-77
2023/02/12 13:02:28;;;;;;;19.65;6.75;;;;;;;;;;5091559;28;20463;-77
2023/02/12 13:04:53;;;;;;;22.20;8.30;;;;;;;;;;5091381;28;20027;-76
2023/02/12 13:07:27;;;;;;;23.02;8.20;;;;;;;;;;5078831;28;20115;-76
2023/02/12 13:09:57;;;;;;;18.77;7.72;;;;;;;;;;5087914;28;20028;-76
2023/02/12 13:12:31;;;;;;;20.02;7.78;;;;;;;;;;5077047;28;20059;-76
2023/02/12 13:14:56;;;;;;;24.67;7.18;;;;;;;;;;5076661;28;20070;-76
2023/02/12 13:17:24;;;;;;;24.45;7.57;;;;;;;;;;5074490;28;20366;-76
2023/02/12 13:20:08;;;;;;;16.45;6.32;;;;;;;;;;5069560;28;20024;-76
2023/02/12 13:22:33;;;;;;;17.40;6.15;;;;;;;;;;5071863;28;20016;-76
2023/02/12 13:24:58;;;;;;;16.58;6.47;;;;;;;;;;5081282;28;20081;-76
2023/02/12 13:27:30;;;;;;;19.33;6.78;;;;;;;;;;5089063;28;20622;-76
2023/02/12 13:30:00;;;;;;;17.83;6.53;;;;;;;;;;5072095;28;20085;-76
2023/02/12 13:32:31;;;;;;;17.98;7.22;;;;;;;;;;5092212;28;20383;-76
2023/02/12 13:34:57;;;;;;;16.83;6.07;;;;;;;;;;5091654;28;20482;-76
2023/02/12 13:37:36;;;;;;;18.48;6.45;;;;;;;;;;5085105;28;20052;-76
2023/02/12 13:40:03;;;;;;;26.67;8.07;;;;;;;;;;5074288;28;20088;-76
2023/02/12 13:42:37;;;;;;;14.32;6.18;;;;;;;;;;5076780;28;20364;-76
2023/02/12 13:45:23;;;;;;;19.48;6.90;;;;;;;;;;5082749;28;20032;-76
2023/02/12 13:48:07;;;;;;;23.55;7.47;;;;;;;;;;5079500;28;20020;-76
2023/02/12 13:50:35;;;;;;;16.17;6.30;;;;;;;;;;5063519;28;20416;-76
2023/02/12 13:53:01;;;;;;;22.35;7.22;;;;;;;;;;5072957;28;20396;-76
2023/02/12 13:55:29;;;;;;;23.80;7.65;;;;;;;;;;5067215;28;20016;-76
2023/02/12 13:58:12;;;;;;;21.48;7.00;;;;;;;;;;5063003;28;20656;-76
2023/02/12 14:00:58;;;;;;;21.20;7.97;;;;;;;;;;5066462;28;20360;-76
2023/02/12 14:03:24;;;;;;;16.65;5.63;;;;;;;;;;5074911;28;20078;-75
2023/02/12 14:06:06;;;;;;;14.45;6.53;;;;;;;;;;5080715;28;20446;-76
2023/02/12 14:08:36;;;;;;;20.70;7.07;;;;;;;;;;5075279;28;20028;-76
2023/02/12 14:11:12;;;;;;;15.57;6.55;;;;;;;;;;5089697;28;20028;-75
2023/02/12 14:14:04;;;;;;;20.45;6.85;;;;;;;;;;5075791;28;20028;-75
2023/02/12 14:16:29;;;;;;;14.75;5.95;;;;;;;;;;5078118;28;20040;-77
2023/02/12 14:19:13;;;;;;;18.92;7.25;;;;;;;;;;5075791;28;20107;-76
2023/02/12 14:21:38;;;;;;;16.20;6.20;;;;;;;;;;5066798;28;20021;-76
2023/02/12 14:24:22;;;;;;;16.98;6.32;;;;;;;;;;5068255;28;20035;-76
2023/02/12 14:26:47;;;;;;;14.05;6.03;;;;;;;;;;5061564;28;20033;-76
2023/02/12 14:29:19;;;;;;;17.58;6.80;;;;;;;;;;5071621;28;20075;-76
2023/02/12 14:31:45;;;;;;;18.67;6.38;;;;;;;;;;5070270;28;20027;-76
2023/02/12 14:34:10;;;;;;;19.10;7.63;;;;;;;;;;5069815;28;20044;-76
2023/02/12 14:36:42;;;;;;;20.27;8.23;;;;;;;;;;5073593;28;20020;-75
2023/02/12 14:39:20;;;;;;;17.83;7.40;;;;;;;;;;5069128;28;20021;-76
2023/02/12 14:41:50;;;;;;;18.55;7.65;;;;;;;;;;5077686;28;20032;-76
2023/02/12 14:44:16;;;;;;;16.02;6.30;;;;;;;;;;5081034;28;20016;-76
2023/02/12 14:46:42;;;;;;;21.27;7.68;;;;;;;;;;5083231;28;20387;-75